Aérodrome :
LOGIN :

S'inscrire | Disclaimer

   EN    FR    IT 

 










Légende :    VFR   VFR Marginal   IFR   IFR Intensif   IFR Très Intensif
Visi : 
Plafond : 
>= 8 km
>= 3000ft
5 à 8 km
1000 à 3000 ft
1500m à 5 km
500 à 1000 ft
800 à 1500m
200 à 500 ft
< 800m
< 200 ft
Symboles :   Orages  Brouillard  Fortes neiges  Fortes précipitations  Vent > 20 kt
SIGMETs :   Divers  Orages  Givrage  Turbulence  Onde Orograph.  Cendres Volcan.







- Altitude de l'aérodrome : 330 ft
- Code IATA : LVA
- Voir les cartes d'approche


LFOV - Laval-Entrammes

DERNIER METAR :
  • 250630Z AUTO 02009KT 350V050 9999 -RA BKN039 OVC048 06/04 Q1013

METARs EXPIRÉS :
  • 250600Z AUTO 02011KT 9999 -RA OVC033 06/04 Q1013
  • 250530Z AUTO 02012KT 9999 -RA SCT014 SCT020 OVC027 06/04 Q1013
  • 250500Z AUTO 01013KT 9999 OVC021 08/05 Q1012
  • 250430Z AUTO 36008KT 9000 SCT014 BKN021 BKN048 08/07 Q1012
  • 250400Z AUTO 35005KT 5000 BR SCT048 BKN074 OVC140 08/07 Q1012

TAF N/A
Pas de NOTAMs connus pour ce terrain.



MET'MAP, la Météo Aéronautique d'un coup d'oeil ! - Copyright ORBIFLY Décembre 2007 - Disclaimer

ORBIFLY MET'MAP TEAM :

Programmation & Développement : Alexandra Zaïnal
Conception & Développement : Baudouin d'Aumeries
Co-Programmation & Développement : Marc-Olivier Méhu
Soutien technique & logistique : Manuel Goepfert

Contact : metmap@orbifly.com




SOURCES & CREDITS :

   NOAA